Time;durP1;ratioP1;P1;durP2;ratioP2;P2;SDS_P1;SDS_P2;PMS_P1;PMS_P2;Temp;Humidity;BMP_temperature;BMP_pressure;BME280_temperature;BME280_humidity;BME280_pressure;Samples;Min_cycle;Max_cycle;Signal;HPM_P1;HPM_P2
2023/05/19 00:00:45;;;;;;;2.85;1.70;;;;;;;10.01;100.00;100549.91;4790509;29;20145;-90
2023/05/19 00:03:11;;;;;;;1.67;0.95;;;;;;;10.09;100.00;100551.34;4816129;29;20454;-90
2023/05/19 00:05:44;;;;;;;0.15;0.15;;;;;;;10.04;100.00;100554.59;4796163;29;20050;-89
2023/05/19 00:08:10;;;;;;;0.28;0.15;;;;;;;10.05;100.00;100556.16;4805298;29;20070;-90
2023/05/19 00:10:36;;;;;;;1.17;0.98;;;;;;;10.02;100.00;100545.94;4804377;29;20488;-94
2023/05/19 00:13:01;;;;;;;0.47;0.47;;;;;;;10.03;100.00;100550.25;4806175;29;20409;-90
2023/05/19 00:15:27;;;;;;;0.63;0.63;;;;;;;9.94;100.00;100527.84;4805752;29;20046;-89
2023/05/19 00:17:54;;;;;;;0.00;0.00;;;;;;;9.89;100.00;100531.09;4819557;29;20085;-90
2023/05/19 00:20:20;;;;;;;1.98;1.65;;;;;;;10.00;100.00;100537.25;4803630;29;20074;-89
2023/05/19 00:22:46;;;;;;;1.23;1.13;;;;;;;9.92;100.00;100519.16;4820876;29;20115;-89
2023/05/19 00:25:11;;;;;;;1.30;1.20;;;;;;;9.93;100.00;100520.75;4802890;29;20038;-89
2023/05/19 00:27:37;;;;;;;2.97;0.88;;;;;;;9.79;100.00;100490.47;4802585;29;20464;-91
2023/05/19 00:30:03;;;;;;;0.38;0.38;;;;;;;9.99;100.00;100524.59;4801844;29;20039;-90
2023/05/19 00:32:29;;;;;;;1.10;1.00;;;;;;;9.89;100.00;100506.16;4787877;29;20050;-90
2023/05/19 00:34:54;;;;;;;6.82;1.65;;;;;;;9.93;100.00;100515.19;4803119;29;20075;-89
2023/05/19 00:37:20;;;;;;;0.63;0.32;;;;;;;9.88;100.00;100501.81;4804450;29;20049;-90
2023/05/19 00:39:46;;;;;;;0.88;0.88;;;;;;;9.89;100.00;100497.84;4818247;29;20035;-90
2023/05/19 00:42:12;;;;;;;0.93;0.43;;;;;;;9.88;100.00;100499.03;4813939;29;20043;-90
2023/05/19 00:44:40;;;;;;;0.55;0.55;;;;;;;9.92;100.00;100497.00;4817706;29;20046;-90
2023/05/19 00:47:06;;;;;;;0.80;0.70;;;;;;;9.89;100.00;100495.06;4803697;29;20057;-90
2023/05/19 00:49:32;;;;;;;0.35;0.35;;;;;;;9.85;100.00;100488.81;4815662;29;20039;-89
2023/05/19 00:51:59;;;;;;;0.43;0.43;;;;;;;9.75;100.00;100486.97;4803974;29;20564;-90
2023/05/19 00:54:24;;;;;;;0.30;0.30;;;;;;;9.85;100.00;100491.59;4804484;29;20111;-89
2023/05/19 00:56:50;;;;;;;0.60;0.60;;;;;;;9.85;100.00;100502.66;4808597;29;20042;-93
2023/05/19 00:59:16;;;;;;;20.85;2.63;;;;;;;9.83;100.00;100500.31;4789664;29;20141;-89
2023/05/19 01:01:42;;;;;;;1.23;1.15;;;;;;;9.64;100.00;100447.59;4803387;29;20053;-89
2023/05/19 01:04:09;;;;;;;2.30;0.93;;;;;;;9.80;100.00;100489.28;4818947;29;20107;-90
2023/05/19 01:06:37;;;;;;;4.60;2.10;;;;;;;9.80;100.00;100492.06;4801358;29;20050;-90
2023/05/19 01:09:03;;;;;;;2.00;1.88;;;;;;;9.85;100.00;100491.59;4802726;29;20054;-89
2023/05/19 01:11:30;;;;;;;0.55;0.55;;;;;;;9.73;100.00;100483.88;4806966;29;20050;-90
2023/05/19 01:13:56;;;;;;;0.65;0.65;;;;;;;9.84;100.00;100498.31;4794085;29;20145;-90
2023/05/19 01:16:37;;;;;;;1.55;1.45;;;;;;;9.79;100.00;100490.47;4816726;29;20578;-89
2023/05/19 01:19:34;;;;;;;0.50;0.38;;;;;;;9.86;100.00;100504.25;4814715;29;20095;-90
2023/05/19 01:22:22;;;;;;;0.73;0.50;;;;;;;9.83;100.00;100510.59;4815167;29;20054;-90
2023/05/19 01:25:18;;;;;;;2.15;1.70;;;;;;;9.85;100.00;100522.06;4814649;29;20129;-90
2023/05/19 01:28:32;;;;;;;0.38;0.38;;;;;;;9.81;100.00;100505.50;4812706;29;21947;-90
2023/05/19 01:30:59;;;;;;;1.45;1.15;;;;;;;9.73;100.00;100489.41;4782937;29;20047;-89
2023/05/19 01:33:26;;;;;;;0.85;0.73;;;;;;;9.80;100.00;100503.91;4799962;29;20050;-90
2023/05/19 01:35:52;;;;;;;2.25;1.60;;;;;;;9.79;100.00;100501.56;4814032;29;20413;-90
2023/05/19 01:38:19;;;;;;;0.20;0.20;;;;;;;9.79;100.00;100498.78;4816044;29;20892;-90
2023/05/19 01:40:47;;;;;;;1.02;0.95;;;;;;;9.80;100.00;100497.59;4818157;29;20054;-90
2023/05/19 01:43:16;;;;;;;6.97;1.60;;;;;;;9.87;100.00;100527.94;4803828;29;20131;-88
2023/05/19 01:45:43;;;;;;;0.13;0.13;;;;;;;9.73;100.00;100494.94;4787624;29;20046;-89
2023/05/19 01:48:08;;;;;;;0.82;0.77;;;;;;;9.77;100.00;100502.00;4817105;29;20047;-89
2023/05/19 01:50:34;;;;;;;0.28;0.25;;;;;;;9.82;100.00;100507.06;4799284;29;20058;-89
2023/05/19 01:53:00;;;;;;;0.73;0.68;;;;;;;9.88;100.00;100517.66;4784024;29;20058;-90
2023/05/19 01:55:26;;;;;;;0.65;0.65;;;;;;;9.84;100.00;100518.50;4787696;29;20049;-93
2023/05/19 01:58:19;;;;;;;0.15;0.15;;;;;;;9.90;100.00;100516.03;4818569;29;20050;-94
2023/05/19 02:01:01;;;;;;;0.93;0.67;;;;;;;9.84;100.00;100520.47;4819160;29;20086;-93
2023/05/19 02:03:55;;;;;;;1.02;0.93;;;;;;;9.88;100.00;100518.44;4808864;29;20053;-92
2023/05/19 02:06:23;;;;;;;1.25;0.57;;;;;;;9.87;100.00;100527.94;4794158;29;20050;-94
2023/05/19 02:09:05;;;;;;;0.40;0.40;;;;;;;9.82;100.00;100526.47;4811354;29;20102;-93
2023/05/19 02:11:45;;;;;;;0.85;0.85;;;;;;;9.87;100.00;100536.25;4811419;29;20043;-93
2023/05/19 02:14:18;;;;;;;0.35;0.35;;;;;;;9.81;100.00;100537.97;4817167;29;20051;-94
2023/05/19 02:16:46;;;;;;;0.73;0.73;;;;;;;9.76;100.00;100513.50;4803583;29;20121;-94
2023/05/19 02:19:27;;;;;;;0.47;0.22;;;;;;;9.76;100.00;100528.13;4804053;29;20046;-93
2023/05/19 02:21:55;;;;;;;0.32;0.30;;;;;;;9.82;100.00;100526.47;4801468;29;20054;-94
2023/05/19 02:24:21;;;;;;;0.73;0.73;;;;;;;9.83;100.00;100528.00;4804412;29;20135;-94
2023/05/19 02:26:48;;;;;;;0.30;0.30;;;;;;;9.83;100.00;100530.00;4789885;29;20051;-94
2023/05/19 02:29:13;;;;;;;1.00;0.95;;;;;;;9.76;100.00;100521.78;4792004;29;20137;-93
2023/05/19 02:31:39;;;;;;;0.90;0.90;;;;;;;9.81;100.00;100524.09;4804536;29;20137;-93
2023/05/19 02:34:05;;;;;;;4.30;0.98;;;;;;;9.72;100.00;100510.00;4796150;29;20057;-94
2023/05/19 02:36:34;;;;;;;1.83;0.95;;;;;;;9.86;100.00;100537.50;4790023;29;20057;-95
2023/05/19 02:39:02;;;;;;;1.38;0.77;;;;;;;9.80;100.00;100528.84;4790183;29;20405;-94
2023/05/19 02:41:29;;;;;;;1.95;1.00;;;;;;;9.79;100.00;100509.88;4804200;29;20091;-89
2023/05/19 02:43:54;;;;;;;0.88;0.60;;;;;;;9.84;100.00;100526.03;4804213;29;20050;-90
2023/05/19 02:46:20;;;;;;;0.80;0.75;;;;;;;9.63;100.00;100495.88;4786124;29;20053;-90
2023/05/19 02:48:45;;;;;;;1.55;1.17;;;;;;;9.58;100.00;100477.00;4788261;29;20037;-89
2023/05/19 02:51:11;;;;;;;0.55;0.55;;;;;;;9.81;100.00;100518.56;4806516;29;20047;-89
2023/05/19 02:53:36;;;;;;;2.17;1.45;;;;;;;9.74;100.00;100505.63;4815443;29;20038;-94
2023/05/19 02:56:02;;;;;;;0.68;0.68;;;;;;;9.81;100.00;100518.56;4791522;29;20050;-94
2023/05/19 02:58:28;;;;;;;0.93;0.93;;;;;;;9.85;100.00;100530.38;4804519;29;20672;-95
2023/05/19 03:00:54;;;;;;;1.13;1.02;;;;;;;9.85;100.00;100524.81;4790740;29;20050;-93
2023/05/19 03:03:20;;;;;;;2.72;1.00;;;;;;;9.83;100.00;100519.69;4820599;29;20077;-94
2023/05/19 03:05:46;;;;;;;0.55;0.55;;;;;;;9.87;100.00;100530.72;4774121;29;20534;-94
2023/05/19 03:08:12;;;;;;;0.50;0.50;;;;;;;9.73;100.00;100515.13;4819528;29;20127;-95
2023/05/19 03:10:37;;;;;;;0.70;0.68;;;;;;;9.70;100.00;100509.66;4788272;29;20098;-89
2023/05/19 03:13:03;;;;;;;4.80;2.05;;;;;;;9.75;100.00;100517.44;4799002;29;20045;-90
2023/05/19 03:15:29;;;;;;;0.57;0.57;;;;;;;9.88;100.00;100526.75;4823811;29;20089;-90
2023/05/19 03:17:55;;;;;;;0.68;0.65;;;;;;;9.81;100.00;100516.56;4786970;29;20050;-90
2023/05/19 03:20:21;;;;;;;0.82;0.38;;;;;;;9.78;100.00;100519.41;4826511;29;20481;-95
2023/05/19 03:22:46;;;;;;;2.13;1.55;;;;;;;9.81;100.00;100529.66;4789208;29;20046;-94
2023/05/19 03:25:12;;;;;;;2.15;1.27;;;;;;;9.69;100.00;100516.38;4822495;29;20213;-94
2023/05/19 03:27:37;;;;;;;2.33;1.55;;;;;;;9.78;100.00;100524.94;4802182;29;20053;-93
2023/05/19 03:30:04;;;;;;;0.77;0.77;;;;;;;9.88;100.00;100539.81;4803393;29;20054;-94
2023/05/19 03:32:31;;;;;;;1.00;1.00;;;;;;;9.79;100.00;100515.41;4821595;29;20480;-93
2023/05/19 03:34:57;;;;;;;1.13;1.08;;;;;;;9.77;100.00;100523.38;4789015;29;20046;-94
2023/05/19 03:37:24;;;;;;;0.70;0.70;;;;;;;9.74;100.00;100533.31;4824324;29;20489;-95
2023/05/19 03:39:49;;;;;;;1.00;0.95;;;;;;;9.70;100.00;100526.25;4807977;29;20057;-94
2023/05/19 03:42:15;;;;;;;0.68;0.65;;;;;;;9.72;100.00;100546.00;4789993;29;20047;-95
2023/05/19 03:44:40;;;;;;;1.30;1.23;;;;;;;9.65;100.00;100543.34;4802038;29;20438;-93
2023/05/19 03:47:06;;;;;;;1.17;1.08;;;;;;;9.66;100.00;100539.38;4805675;29;20684;-95
2023/05/19 03:49:46;;;;;;;0.55;0.55;;;;;;;9.71;100.00;100547.19;4784985;29;20053;-94
2023/05/19 03:52:45;;;;;;;0.50;0.50;;;;;;;9.68;100.00;100543.28;4806047;29;20081;-96
2023/05/19 03:55:28;;;;;;;0.38;0.32;;;;;;;9.71;100.00;100530.56;4804154;29;20051;-94
2023/05/19 03:57:54;;;;;;;0.28;0.28;;;;;;;9.76;100.00;100546.72;4820267;29;20057;-95
2023/05/19 04:00:20;;;;;;;2.00;1.35;;;;;;;9.59;100.00;100531.16;4803068;29;20049;-94
2023/05/19 04:02:46;;;;;;;1.40;1.30;;;;;;;9.75;100.00;100539.63;4790040;29;20497;-95
2023/05/19 04:05:11;;;;;;;1.20;1.08;;;;;;;9.73;100.00;100547.56;4822660;29;20050;-93
2023/05/19 04:07:37;;;;;;;1.27;1.17;;;;;;;9.56;100.00;100523.69;4787193;29;20046;-89
2023/05/19 04:10:06;;;;;;;1.40;1.17;;;;;;;9.68;100.00;100536.97;4803992;29;20042;-89
2023/05/19 04:12:32;;;;;;;1.48;1.38;;;;;;;9.67;100.00;100538.94;4785905;29;20050;-89
2023/05/19 04:14:58;;;;;;;2.00;1.67;;;;;;;9.76;100.00;100549.50;4811806;29;20061;-90
2023/05/19 04:17:25;;;;;;;1.05;1.05;;;;;;;9.80;100.00;100562.09;4817749;29;20471;-94
2023/05/19 04:19:52;;;;;;;0.32;0.32;;;;;;;9.83;100.00;100571.56;4805514;29;20061;-93
2023/05/19 04:22:17;;;;;;;1.20;1.17;;;;;;;9.74;100.00;100540.84;4806936;29;20054;-94
2023/05/19 04:24:43;;;;;;;0.10;0.10;;;;;;;9.88;100.00;100556.44;4819339;29;20050;-94
2023/05/19 04:27:11;;;;;;;0.40;0.40;;;;;;;9.65;100.00;100530.28;4788364;29;20063;-93
2023/05/19 04:29:39;;;;;;;0.08;0.08;;;;;;;9.87;100.00;100552.88;4790534;29;20106;-93
2023/05/19 04:32:05;;;;;;;0.98;0.98;;;;;;;9.98;100.00;100572.91;4807079;29;20141;-94
2023/05/19 04:34:32;;;;;;;0.68;0.50;;;;;;;9.77;100.00;100545.53;4818516;29;20526;-88
2023/05/19 04:36:58;;;;;;;0.55;0.55;;;;;;;9.83;100.00;100560.47;4813703;29;20142;-89
2023/05/19 04:39:23;;;;;;;0.77;0.70;;;;;;;9.88;100.00;100570.28;4789523;29;20116;-89
2023/05/19 04:41:50;;;;;;;2.10;1.40;;;;;;;9.87;100.00;100572.28;4815846;29;20058;-89
2023/05/19 04:44:16;;;;;;;1.38;0.80;;;;;;;9.91;100.00;100575.03;4818210;29;20078;-89
2023/05/19 04:46:44;;;;;;;0.40;0.17;;;;;;;9.99;100.00;100579.25;4816813;29;20097;-89
2023/05/19 04:49:13;;;;;;;1.70;0.95;;;;;;;9.93;100.00;100569.84;4787205;29;20055;-88
2023/05/19 04:51:44;;;;;;;0.75;0.65;;;;;;;9.95;100.00;100573.75;4784828;29;20503;-88
2023/05/19 04:54:10;;;;;;;1.27;1.02;;;;;;;9.94;100.00;100569.41;4805278;29;20057;-91
2023/05/19 04:56:36;;;;;;;1.55;0.75;;;;;;;9.85;100.00;100552.53;4803791;29;20213;-92
2023/05/19 04:59:02;;;;;;;1.75;0.85;;;;;;;9.94;100.00;100552.78;4800947;29;20056;-92
2023/05/19 05:01:30;;;;;;;1.85;1.42;;;;;;;10.10;100.00;100575.09;4803374;29;20042;-92
2023/05/19 05:03:57;;;;;;;1.08;1.00;;;;;;;10.16;100.00;100587.28;4810924;29;20054;-92
2023/05/19 05:06:23;;;;;;;0.30;0.30;;;;;;;9.92;100.00;100551.63;4798498;29;20376;-92
2023/05/19 05:08:49;;;;;;;1.63;1.52;;;;;;;10.00;100.00;100564.97;4800588;29;20081;-92
2023/05/19 05:11:16;;;;;;;1.88;1.77;;;;;;;9.87;100.00;100543.81;4816938;29;20611;-92
2023/05/19 05:13:42;;;;;;;0.47;0.47;;;;;;;9.95;100.00;100540.47;4804518;29;20050;-91
2023/05/19 05:16:08;;;;;;;2.80;2.60;;;;;;;9.94;100.00;100540.94;4803410;29;20038;-92
2023/05/19 05:18:35;;;;;;;0.95;0.95;;;;;;;10.08;100.00;100568.41;4819911;29;20534;-92
2023/05/19 05:21:01;;;;;;;1.02;1.02;;;;;;;10.19;100.00;100575.34;4788295;29;20473;-90
2023/05/19 05:23:28;;;;;;;0.55;0.55;;;;;;;10.02;100.00;100543.16;4802082;29;20451;-91
2023/05/19 05:25:54;;;;;;;1.42;1.33;;;;;;;10.29;100.00;100570.84;4818736;29;20062;-91
2023/05/19 05:28:20;;;;;;;0.93;0.80;;;;;;;10.28;100.00;100575.59;4801943;29;20081;-92
2023/05/19 05:30:47;;;;;;;1.38;1.27;;;;;;;10.22;100.00;100549.59;4803162;29;20066;-92
2023/05/19 05:33:14;;;;;;;3.40;1.02;;;;;;;10.26;100.00;100563.38;4804321;29;20046;-92
2023/05/19 05:35:40;;;;;;;2.13;0.80;;;;;;;10.14;100.00;100534.25;4820043;29;20050;-92
2023/05/19 05:38:10;;;;;;;0.82;0.82;;;;;;;10.32;100.00;100563.66;4819601;29;20054;-92
2023/05/19 05:40:36;;;;;;;1.75;1.65;;;;;;;10.35;100.00;100551.75;4803083;29;20614;-95
2023/05/19 05:43:03;;;;;;;1.08;0.93;;;;;;;10.66;100.00;100589.22;4789525;29;20799;-91
2023/05/19 05:45:31;;;;;;;0.77;0.77;;;;;;;10.38;100.00;100550.91;4820082;29;20060;-92
2023/05/19 05:47:59;;;;;;;2.58;1.67;;;;;;;10.59;100.00;100579.03;4818817;29;20055;-92
2023/05/19 05:50:25;;;;;;;1.23;1.13;;;;;;;10.54;100.00;100565.66;4805040;29;20440;-92
2023/05/19 05:52:52;;;;;;;0.95;0.93;;;;;;;10.59;100.00;100570.72;4781631;29;20043;-91
2023/05/19 05:55:19;;;;;;;1.67;1.58;;;;;;;10.64;100.00;100581.31;4819212;29;20054;-93
2023/05/19 05:57:47;;;;;;;1.50;1.40;;;;;;;10.56;100.00;100562.44;4790055;29;20046;-95
2023/05/19 06:00:14;;;;;;;2.90;1.33;;;;;;;10.71;100.00;100577.63;4808063;29;20053;-96
2023/05/19 06:02:50;;;;;;;1.25;1.15;;;;;;;10.95;100.00;100606.91;4796469;29;20042;-94
2023/05/19 06:05:17;;;;;;;2.05;1.52;;;;;;;10.69;100.00;100555.84;4794652;29;20055;-95
2023/05/19 06:07:45;;;;;;;0.45;0.45;;;;;;;10.76;100.00;100566.03;4807731;29;20050;-95
2023/05/19 06:10:20;;;;;;;1.27;1.08;;;;;;;10.98;100.00;100600.50;4799237;29;20042;-95
2023/05/19 06:12:47;;;;;;;0.17;0.17;;;;;;;10.91;100.00;100575.66;4811735;29;20054;-95
2023/05/19 06:15:13;;;;;;;2.50;1.02;;;;;;;11.10;100.00;100574.09;4809461;29;20057;-95
2023/05/19 06:18:05;;;;;;;1.65;0.88;;;;;;;11.03;100.00;100580.59;4801551;29;20042;-95
2023/05/19 06:20:31;;;;;;;1.65;0.80;;;;;;;11.22;100.00;100620.66;4797121;29;20046;-96
2023/05/19 06:22:56;;;;;;;1.25;1.05;;;;;;;11.31;100.00;100628.41;4810257;29;20046;-96
2023/05/19 06:25:25;;;;;;;2.30;1.05;;;;;;;11.06;100.00;100610.25;4794696;29;20054;-96
2023/05/19 06:27:51;;;;;;;0.30;0.30;;;;;;;11.15;100.00;100629.91;4793276;29;20046;-96
2023/05/19 06:30:16;;;;;;;1.77;1.23;;;;;;;11.07;100.00;100636.81;4809590;29;20078;-96
2023/05/19 06:32:55;;;;;;;2.17;1.65;;;;;;;11.05;100.00;100622.56;4797359;29;20572;-95
2023/05/19 06:35:21;;;;;;;1.63;1.17;;;;;;;11.10;100.00;100619.31;4794707;29;20047;-95
2023/05/19 06:37:46;;;;;;;2.35;2.15;;;;;;;11.02;100.00;100600.44;4795115;29;20527;-92
2023/05/19 06:40:12;;;;;;;0.60;0.60;;;;;;;11.18;100.00;100612.41;4795320;29;20037;-96
2023/05/19 06:42:40;;;;;;;1.77;1.33;;;;;;;11.39;100.00;100638.19;4796737;29;20046;-95
2023/05/19 06:45:13;;;;;;;;;;;;;;;11.48;100.00;100643.94;4795965;29;20053;-95
2023/05/19 06:47:43;;;;;;;0.80;0.65;;;;;;;11.31;100.00;100615.31;4811634;29;19924;-96
2023/05/19 06:50:09;;;;;;;0.80;0.80;;;;;;;11.47;100.00;100645.16;4797810;29;20038;-95
2023/05/19 06:52:37;;;;;;;0.40;0.40;;;;;;;11.44;100.00;100615.47;4798482;29;20042;-95
2023/05/19 06:55:03;;;;;;;0.43;0.43;;;;;;;11.52;100.00;100628.78;4808525;29;20081;-95
2023/05/19 06:57:30;;;;;;;1.38;1.17;;;;;;;11.58;100.00;100629.03;4804292;29;20047;-94
2023/05/19 06:59:56;;;;;;;0.75;0.75;;;;;;;11.57;100.00;100624.69;4797286;29;20107;-94
2023/05/19 07:02:23;;;;;;;0.73;0.57;;;;;;;11.56;100.00;100600.91;4812996;29;20236;-94
2023/05/19 07:04:50;;;;;;;1.55;1.33;;;;;;;11.83;100.00;100614.63;4797294;29;20046;-96
2023/05/19 07:07:16;;;;;;;1.08;0.95;;;;;;;11.86;100.00;100597.88;4794908;29;20513;-92
2023/05/19 07:09:42;;;;;;;1.58;1.48;;;;;;;12.08;100.00;100600.94;4808679;29;20087;-93
2023/05/19 07:12:08;;;;;;;2.55;2.10;;;;;;;12.35;100.00;100612.59;4789733;29;20054;-92
2023/05/19 07:14:35;;;;;;;2.50;1.92;;;;;;;12.53;100.00;100632.41;4804889;29;20047;-91
2023/05/19 07:17:01;;;;;;;0.75;0.75;;;;;;;12.33;100.00;100572.53;4810266;29;20049;-93
2023/05/19 07:19:27;;;;;;;1.50;0.98;;;;;;;12.47;100.00;100588.84;4824218;29;20103;-91
2023/05/19 07:21:53;;;;;;;1.55;1.30;;;;;;;12.37;100.00;100584.34;4824295;29;20073;-93
2023/05/19 07:24:20;;;;;;;2.13;2.00;;;;;;;12.45;100.00;100591.28;4814244;29;20053;-93
2023/05/19 07:26:46;;;;;;;1.42;1.08;;;;;;;12.47;100.00;100597.19;4815057;29;20054;-92
2023/05/19 07:29:12;;;;;;;2.55;1.85;;;;;;;12.42;100.00;100565.09;4817174;29;20110;-93
2023/05/19 07:31:37;;;;;;;1.70;1.25;;;;;;;12.49;100.00;100566.94;4804176;29;20056;-92
2023/05/19 07:34:03;;;;;;;0.47;0.47;;;;;;;12.65;100.00;100561.34;4813077;29;20072;-92
2023/05/19 07:36:30;;;;;;;0.98;0.55;;;;;;;12.86;100.00;100585.78;4790674;29;20085;-93
2023/05/19 07:38:55;;;;;;;1.38;1.30;;;;;;;12.85;100.00;100559.19;4813029;29;20520;-92
2023/05/19 07:41:21;;;;;;;1.33;1.23;;;;;;;13.25;100.00;100579.16;4815382;29;20042;-92
2023/05/19 07:43:48;;;;;;;1.55;1.20;;;;;;;13.28;100.00;100583.06;4828996;29;20528;-93
2023/05/19 07:46:14;;;;;;;0.65;0.65;;;;;;;13.29;100.00;100574.28;4799122;29;20050;-93
2023/05/19 07:48:39;;;;;;;0.85;0.85;;;;;;;13.66;100.00;100603.44;4814978;29;20520;-91
2023/05/19 07:51:08;;;;;;;1.00;1.00;;;;;;;13.59;100.00;100564.59;4804965;29;20096;-91
2023/05/19 07:53:35;;;;;;;1.00;0.95;;;;;;;13.60;100.00;100577.31;4816141;29;20070;-96
2023/05/19 07:56:00;;;;;;;1.00;1.00;;;;;;;13.61;100.00;100567.75;4819960;29;20077;-96
2023/05/19 07:58:26;;;;;;;1.98;1.80;;;;;;;13.58;100.00;100568.63;4804962;29;20048;-96
2023/05/19 08:00:52;;;;;;;3.25;0.88;;;;;;;13.89;100.00;100591.94;4804123;29;20050;-96
2023/05/19 08:03:19;;;;;;;3.03;1.75;;;;;;;13.70;100.00;100570.66;4797968;29;20046;-96
2023/05/19 08:05:45;;;;;;;1.55;1.42;;;;;;;13.74;100.00;100568.53;4808477;29;20042;-96
2023/05/19 08:08:11;;;;;;;1.52;1.38;;;;;;;13.75;100.00;100572.88;4809418;29;20050;-96
2023/05/19 08:10:39;;;;;;;2.60;1.38;;;;;;;13.71;100.00;100582.59;4827670;29;20079;-95
2023/05/19 08:13:06;;;;;;;0.80;0.65;;;;;;;13.62;100.00;100562.94;4814095;29;20042;-96
2023/05/19 08:15:35;;;;;;;1.10;0.95;;;;;;;13.48;100.00;100553.00;4812784;29;20050;-96
2023/05/19 08:18:03;;;;;;;5.00;2.10;;;;;;;13.65;100.00;100557.25;4801198;29;20054;-96
2023/05/19 08:20:30;;;;;;;0.93;0.93;;;;;;;13.84;100.00;100584.13;4782679;29;20141;-93
2023/05/19 08:22:55;;;;;;;1.10;1.05;;;;;;;14.00;100.00;100594.41;4805152;29;20057;-92
2023/05/19 08:25:21;;;;;;;2.03;1.17;;;;;;;14.11;100.00;100588.50;4802275;29;20042;-92
2023/05/19 08:27:47;;;;;;;1.92;1.55;;;;;;;14.25;100.00;100593.59;4818977;29;20082;-92
2023/05/19 08:30:13;;;;;;;3.03;1.17;;;;;;;14.30;100.00;100599.41;4829076;29;20076;-92
2023/05/19 08:32:38;;;;;;;1.27;1.17;;;;;;;14.15;100.00;100567.63;4830507;29;20046;-92
2023/05/19 08:35:04;;;;;;;0.38;0.38;;;;;;;14.37;100.00;100596.41;4819884;29;20046;-91
2023/05/19 08:37:30;;;;;;;0.95;0.90;;;;;;;14.28;100.00;100584.31;4805418;29;20111;-92
2023/05/19 08:39:56;;;;;;;2.80;0.75;;;;;;;14.36;100.00;100583.66;4804188;29;20129;-92
2023/05/19 08:42:21;;;;;;;2.90;1.58;;;;;;;14.35;100.00;100554.22;4804107;29;20047;-92
2023/05/19 08:44:47;;;;;;;1.73;1.00;;;;;;;14.40;100.00;100598.28;4804020;29;20523;-93
2023/05/19 08:47:14;;;;;;;0.65;0.65;;;;;;;14.25;100.00;100588.00;4819593;29;20050;-92
2023/05/19 08:49:45;;;;;;;1.00;0.93;;;;;;;14.20;100.00;100550.28;4823536;29;20498;-96
2023/05/19 08:52:34;;;;;;;0.82;0.82;;;;;;;14.19;100.00;100561.94;4822233;29;20054;-96
2023/05/19 08:55:08;;;;;;;2.70;1.60;;;;;;;14.37;100.00;100573.28;4805452;29;21039;-96
2023/05/19 08:57:35;;;;;;;0.98;0.73;;;;;;;14.30;100.00;100549.16;4815141;29;20050;-96
2023/05/19 09:00:04;;;;;;;2.35;1.30;;;;;;;14.30;100.00;100551.19;4813215;29;20054;-92
2023/05/19 09:02:30;;;;;;;1.20;1.02;;;;;;;14.34;100.00;100551.84;4826860;29;20034;-96
2023/05/19 09:04:56;;;;;;;1.63;1.52;;;;;;;14.30;100.00;100551.19;4814331;29;20034;-96
2023/05/19 09:07:24;;;;;;;1.65;1.15;;;;;;;14.43;100.00;100558.34;4820262;29;20046;-96
2023/05/19 09:09:50;;;;;;;1.38;1.17;;;;;;;14.55;100.00;100551.16;4829584;29;20054;-96
2023/05/19 09:12:15;;;;;;;0.93;0.93;;;;;;;14.72;100.00;100555.31;4816701;29;20039;-96
2023/05/19 09:14:41;;;;;;;0.98;0.98;;;;;;;15.01;100.00;100582.22;4817622;29;20039;-96
2023/05/19 09:17:07;;;;;;;0.40;0.40;;;;;;;15.01;100.00;100543.09;4815236;29;20122;-96
2023/05/19 09:19:33;;;;;;;0.82;0.82;;;;;;;15.08;100.00;100545.66;4801762;29;20059;-96
2023/05/19 09:22:02;;;;;;;2.83;1.15;;;;;;;15.25;100.00;100544.97;4795671;29;20062;-96
2023/05/19 09:24:28;;;;;;;3.60;1.58;;;;;;;15.19;100.00;100537.66;4805383;29;20089;-96
2023/05/19 09:26:58;;;;;;;0.40;0.30;;;;;;;15.16;100.00;100547.75;4794684;29;20038;-96
2023/05/19 09:29:24;;;;;;;1.75;1.30;;;;;;;15.13;100.00;100553.44;4790174;29;20052;-96
2023/05/19 09:31:59;;;;;;;1.83;1.42;;;;;;;15.21;100.00;100541.53;4788215;29;20137;-96
2023/05/19 09:34:25;;;;;;;3.72;0.68;;;;;;;15.47;100.00;100553.34;4800069;29;20046;-96
2023/05/19 09:36:52;;;;;;;0.52;0.52;;;;;;;15.82;100.00;100591.13;4789548;29;20034;-96
2023/05/19 09:39:20;;;;;;;0.70;0.70;;;;;;;15.77;100.00;100574.94;4801174;29;20051;-96
2023/05/19 09:41:53;;;;;;;0.75;0.63;;;;;;;15.73;100.00;100537.19;4827570;29;20045;-96
2023/05/19 09:44:22;;;;;;;1.75;0.93;;;;;;;16.04;100.00;100534.31;4803109;29;20058;-96
2023/05/19 10:05:52;;;;;;;0.68;0.68;;;;;;;17.84;100.00;100520.63;4897834;29;20237;-96
2023/05/19 10:08:20;;;;;;;0.90;0.90;;;;;;;17.67;100.00;100506.19;4869425;29;20037;-95
2023/05/19 10:10:46;;;;;;;0.73;0.73;;;;;;;17.65;100.00;100519.16;4867256;29;20057;-96
2023/05/19 10:13:12;;;;;;;1.17;1.08;;;;;;;17.78;100.00;100504.91;4886701;29;20043;-96
2023/05/19 10:15:41;;;;;;;2.17;1.05;;;;;;;18.28;100.00;100512.38;4882019;29;20709;-96
2023/05/19 10:18:08;;;;;;;0.73;0.73;;;;;;;18.82;100.00;100507.63;4872024;29;20045;-96
2023/05/19 10:20:35;;;;;;;1.17;0.75;;;;;;;19.20;100.00;100499.13;4866883;29;20052;-95
2023/05/19 10:23:02;;;;;;;1.17;1.08;;;;;;;19.29;100.00;100524.31;4875867;29;20080;-96
2023/05/19 10:25:30;;;;;;;0.95;0.63;;;;;;;19.15;100.00;100527.16;4861111;29;20033;-92
2023/05/19 10:28:01;;;;;;;0.20;0.20;;;;;;;19.07;100.00;100523.94;4883548;29;20051;-96
2023/05/19 10:30:48;;;;;;;0.40;0.40;;;;;;;18.89;100.00;100530.50;4889470;29;20064;-96
2023/05/19 10:33:18;;;;;;;0.20;0.20;;;;;;;18.71;100.00;100525.06;4878451;29;20141;-95
2023/05/19 10:36:07;;;;;;;1.52;0.80;;;;;;;18.72;100.00;100563.16;4890763;29;20041;-96
2023/05/19 10:38:41;;;;;;;0.38;0.38;;;;;;;18.67;100.00;100534.94;4875367;29;20076;-96
2023/05/19 10:41:15;;;;;;;0.68;0.68;;;;;;;18.40;100.00;100525.41;4870781;29;20040;-96
2023/05/19 10:43:55;;;;;;;2.35;0.90;;;;;;;18.76;100.00;100560.94;4860643;29;20045;-96
2023/05/19 10:46:25;;;;;;;0.47;0.47;;;;;;;18.97;100.00;100564.63;4854751;29;20056;-95
2023/05/19 10:48:52;;;;;;;1.42;1.13;;;;;;;18.69;100.00;100538.03;4867749;29;20510;-95
2023/05/19 10:51:17;;;;;;;0.25;0.25;;;;;;;18.78;100.00;100529.53;4860232;29;20041;-96
2023/05/19 10:53:46;;;;;;;0.70;0.70;;;;;;;18.85;100.00;100551.63;4882217;29;20112;-96
2023/05/19 10:56:28;;;;;;;1.33;0.95;;;;;;;18.96;100.00;100551.84;4861669;29;20033;-96
2023/05/19 10:58:54;;;;;;;0.47;0.47;;;;;;;19.30;100.00;100564.47;4864069;29;20152;-96
2023/05/19 11:01:23;;;;;;;0.93;0.93;;;;;;;19.03;100.00;100520.53;4872998;29;20123;-95
2023/05/19 11:03:53;;;;;;;0.47;0.45;;;;;;;19.49;100.00;100560.25;4864597;29;20057;-96
2023/05/19 11:06:29;;;;;;;2.17;1.00;;;;;;;19.43;100.00;100503.88;4850531;29;20049;-96
2023/05/19 11:09:07;;;;;;;1.45;0.98;;;;;;;19.80;100.00;100554.88;4860576;29;20068;-96
2023/05/19 11:11:53;;;;;;;1.45;1.13;;;;;;;19.63;100.00;100541.78;4887825;29;20131;-91
2023/05/19 11:14:25;;;;;;;0.50;0.43;;;;;;;19.51;100.00;100536.00;4903345;29;20135;-92
2023/05/19 11:16:53;;;;;;;2.42;1.20;;;;;;;19.57;100.00;100544.53;4866467;29;20052;-92
2023/05/19 11:19:30;;;;;;;0.32;0.32;;;;;;;19.99;100.00;100538.50;4895954;29;20068;-91
2023/05/19 11:22:06;;;;;;;0.85;0.57;;;;;;;20.23;98.63;100516.56;4895023;29;20056;-93
2023/05/19 11:24:52;;;;;;;0.20;0.20;;;;;;;20.58;99.26;100532.69;4910894;29;20076;-95
2023/05/19 11:27:30;;;;;;;1.13;0.88;;;;;;;20.61;95.00;100492.22;4884999;29;20058;-96
2023/05/19 11:29:58;;;;;;;0.80;0.55;;;;;;;20.68;91.17;100503.06;4868906;29;20059;-96
2023/05/19 11:32:28;;;;;;;0.93;0.90;;;;;;;20.34;92.80;100539.28;4855608;29;20148;-96
2023/05/19 11:34:55;;;;;;;0.43;0.43;;;;;;;20.12;99.24;100538.97;4897645;29;20519;-96
2023/05/19 11:37:21;;;;;;;0.50;0.35;;;;;;;19.96;98.73;100543.09;4866677;29;20033;-96
2023/05/19 11:39:46;;;;;;;1.58;0.95;;;;;;;19.68;100.00;100513.75;4867266;29;20052;-96
2023/05/19 11:42:12;;;;;;;0.43;0.43;;;;;;;19.90;100.00;100493.59;4897762;29;20499;-96
2023/05/19 11:44:40;;;;;;;0.93;0.88;;;;;;;20.08;99.07;100515.88;4882005;29;20045;-95
2023/05/19 11:47:06;;;;;;;0.90;0.90;;;;;;;19.98;100.00;100481.41;4861072;29;20053;-96